sensor_id;sensor_type;location;lat;lon;timestamp;P1;durP1;ratioP1;P2;durP2;ratioP2
65172;SDS011;69059;52.218;5.172;2023-04-24T00:00:10;12.30;;;5.50;;
65172;SDS011;69059;52.218;5.172;2023-04-24T00:02:42;3.40;;;2.10;;
65172;SDS011;69059;52.218;5.172;2023-04-24T00:05:13;1.23;;;1.10;;
65172;SDS011;69059;52.218;5.172;2023-04-24T00:07:42;1.30;;;0.82;;
65172;SDS011;69059;52.218;5.172;2023-04-24T00:10:10;0.85;;;0.85;;
65172;SDS011;69059;52.218;5.172;2023-04-24T00:15:06;2.87;;;1.17;;
65172;SDS011;69059;52.218;5.172;2023-04-24T00:17:35;3.83;;;2.23;;
65172;SDS011;69059;52.218;5.172;2023-04-24T00:20:05;2.80;;;2.47;;
65172;SDS011;69059;52.218;5.172;2023-04-24T00:22:33;2.80;;;2.10;;
65172;SDS011;69059;52.218;5.172;2023-04-24T00:25:01;1.77;;;1.50;;
65172;SDS011;69059;52.218;5.172;2023-04-24T00:27:29;1.30;;;1.08;;
65172;SDS011;69059;52.218;5.172;2023-04-24T00:29:57;2.00;;;1.10;;
65172;SDS011;69059;52.218;5.172;2023-04-24T00:32:24;1.33;;;1.07;;
65172;SDS011;69059;52.218;5.172;2023-04-24T00:34:52;3.70;;;1.83;;
65172;SDS011;69059;52.218;5.172;2023-04-24T00:37:21;3.77;;;2.20;;
65172;SDS011;69059;52.218;5.172;2023-04-24T00:39:49;7.07;;;3.80;;
65172;SDS011;69059;52.218;5.172;2023-04-24T00:42:17;6.63;;;4.20;;
65172;SDS011;69059;52.218;5.172;2023-04-24T00:44:44;7.73;;;4.10;;
65172;SDS011;69059;52.218;5.172;2023-04-24T00:47:12;7.28;;;4.47;;
65172;SDS011;69059;52.218;5.172;2023-04-24T00:49:40;7.55;;;4.30;;
65172;SDS011;69059;52.218;5.172;2023-04-24T00:52:08;6.40;;;4.53;;
65172;SDS011;69059;52.218;5.172;2023-04-24T00:54:38;4.75;;;3.55;;
65172;SDS011;69059;52.218;5.172;2023-04-24T00:57:05;10.50;;;3.83;;
65172;SDS011;69059;52.218;5.172;2023-04-24T00:59:33;7.67;;;3.60;;
65172;SDS011;69059;52.218;5.172;2023-04-24T01:02:02;6.70;;;3.20;;
65172;SDS011;69059;52.218;5.172;2023-04-24T01:04:31;5.05;;;2.63;;
65172;SDS011;69059;52.218;5.172;2023-04-24T01:06:59;3.00;;;2.50;;
65172;SDS011;69059;52.218;5.172;2023-04-24T01:09:27;3.80;;;2.30;;
65172;SDS011;69059;52.218;5.172;2023-04-24T01:11:57;6.50;;;2.30;;
65172;SDS011;69059;52.218;5.172;2023-04-24T01:14:27;4.20;;;1.57;;
65172;SDS011;69059;52.218;5.172;2023-04-24T01:16:54;3.08;;;1.75;;
65172;SDS011;69059;52.218;5.172;2023-04-24T01:19:23;3.03;;;1.50;;
65172;SDS011;69059;52.218;5.172;2023-04-24T01:21:52;4.17;;;1.40;;
65172;SDS011;69059;52.218;5.172;2023-04-24T01:24:23;4.87;;;1.40;;
65172;SDS011;69059;52.218;5.172;2023-04-24T01:26:50;1.20;;;1.10;;
65172;SDS011;69059;52.218;5.172;2023-04-24T01:29:18;2.20;;;1.37;;
65172;SDS011;69059;52.218;5.172;2023-04-24T01:31:46;2.10;;;1.87;;
65172;SDS011;69059;52.218;5.172;2023-04-24T01:34:14;4.13;;;1.92;;
65172;SDS011;69059;52.218;5.172;2023-04-24T01:36:43;4.47;;;1.90;;
65172;SDS011;69059;52.218;5.172;2023-04-24T01:39:12;2.93;;;2.60;;
65172;SDS011;69059;52.218;5.172;2023-04-24T01:41:43;4.43;;;3.00;;
65172;SDS011;69059;52.218;5.172;2023-04-24T01:44:11;3.20;;;2.60;;
65172;SDS011;69059;52.218;5.172;2023-04-24T01:46:38;4.72;;;2.67;;
65172;SDS011;69059;52.218;5.172;2023-04-24T01:49:07;4.22;;;2.90;;
65172;SDS011;69059;52.218;5.172;2023-04-24T01:51:34;3.93;;;2.60;;
65172;SDS011;69059;52.218;5.172;2023-04-24T01:54:02;4.20;;;2.50;;
65172;SDS011;69059;52.218;5.172;2023-04-24T01:56:30;3.87;;;2.30;;
65172;SDS011;69059;52.218;5.172;2023-04-24T01:59:02;6.17;;;2.27;;
65172;SDS011;69059;52.218;5.172;2023-04-24T02:01:33;5.00;;;2.27;;
65172;SDS011;69059;52.218;5.172;2023-04-24T02:04:02;4.30;;;1.73;;
65172;SDS011;69059;52.218;5.172;2023-04-24T02:06:30;3.25;;;2.00;;
65172;SDS011;69059;52.218;5.172;2023-04-24T02:08:58;2.72;;;1.63;;
65172;SDS011;69059;52.218;5.172;2023-04-24T02:11:26;1.98;;;1.58;;
65172;SDS011;69059;52.218;5.172;2023-04-24T02:13:54;1.90;;;1.70;;
65172;SDS011;69059;52.218;5.172;2023-04-24T02:16:23;4.90;;;1.77;;
65172;SDS011;69059;52.218;5.172;2023-04-24T02:18:51;2.13;;;1.90;;
65172;SDS011;69059;52.218;5.172;2023-04-24T02:21:19;4.07;;;1.63;;
65172;SDS011;69059;52.218;5.172;2023-04-24T02:23:47;3.83;;;1.90;;
65172;SDS011;69059;52.218;5.172;2023-04-24T02:26:14;2.10;;;1.40;;
65172;SDS011;69059;52.218;5.172;2023-04-24T02:28:42;4.10;;;1.30;;
65172;SDS011;69059;52.218;5.172;2023-04-24T02:31:10;1.90;;;1.20;;
65172;SDS011;69059;52.218;5.172;2023-04-24T02:33:39;2.05;;;1.35;;
65172;SDS011;69059;52.218;5.172;2023-04-24T02:36:07;2.20;;;1.20;;
65172;SDS011;69059;52.218;5.172;2023-04-24T02:38:35;2.20;;;1.37;;
65172;SDS011;69059;52.218;5.172;2023-04-24T02:41:02;2.77;;;1.30;;
65172;SDS011;69059;52.218;5.172;2023-04-24T02:43:32;3.10;;;1.60;;
65172;SDS011;69059;52.218;5.172;2023-04-24T02:46:00;1.70;;;1.33;;
65172;SDS011;69059;52.218;5.172;2023-04-24T02:48:29;3.47;;;1.73;;
65172;SDS011;69059;52.218;5.172;2023-04-24T02:50:58;2.80;;;1.80;;
65172;SDS011;69059;52.218;5.172;2023-04-24T02:53:26;5.90;;;2.30;;
65172;SDS011;69059;52.218;5.172;2023-04-24T02:55:56;5.83;;;2.30;;
65172;SDS011;69059;52.218;5.172;2023-04-24T02:58:23;5.33;;;2.17;;
65172;SDS011;69059;52.218;5.172;2023-04-24T03:00:53;2.40;;;1.98;;
65172;SDS011;69059;52.218;5.172;2023-04-24T03:03:21;3.47;;;2.60;;
65172;SDS011;69059;52.218;5.172;2023-04-24T03:05:50;4.70;;;2.47;;
65172;SDS011;69059;52.218;5.172;2023-04-24T03:08:19;4.93;;;2.60;;
65172;SDS011;69059;52.218;5.172;2023-04-24T03:10:47;4.67;;;2.60;;
65172;SDS011;69059;52.218;5.172;2023-04-24T03:13:15;3.97;;;2.47;;
65172;SDS011;69059;52.218;5.172;2023-04-24T03:15:42;4.43;;;2.80;;
65172;SDS011;69059;52.218;5.172;2023-04-24T03:18:11;5.80;;;2.47;;
65172;SDS011;69059;52.218;5.172;2023-04-24T03:20:39;7.03;;;2.77;;
65172;SDS011;69059;52.218;5.172;2023-04-24T03:23:06;9.53;;;2.77;;
65172;SDS011;69059;52.218;5.172;2023-04-24T03:25:35;5.13;;;3.00;;
65172;SDS011;69059;52.218;5.172;2023-04-24T03:28:03;3.70;;;2.33;;
65172;SDS011;69059;52.218;5.172;2023-04-24T03:30:31;5.80;;;2.90;;
65172;SDS011;69059;52.218;5.172;2023-04-24T03:32:58;5.87;;;3.83;;
65172;SDS011;69059;52.218;5.172;2023-04-24T03:35:26;4.60;;;3.08;;
65172;SDS011;69059;52.218;5.172;2023-04-24T03:37:54;3.70;;;2.90;;
65172;SDS011;69059;52.218;5.172;2023-04-24T03:40:22;4.23;;;2.80;;
65172;SDS011;69059;52.218;5.172;2023-04-24T03:42:51;3.90;;;2.87;;
65172;SDS011;69059;52.218;5.172;2023-04-24T03:45:18;2.70;;;2.40;;
65172;SDS011;69059;52.218;5.172;2023-04-24T03:47:46;3.08;;;2.55;;
65172;SDS011;69059;52.218;5.172;2023-04-24T03:50:14;2.97;;;2.07;;
65172;SDS011;69059;52.218;5.172;2023-04-24T03:52:42;3.43;;;1.90;;
65172;SDS011;69059;52.218;5.172;2023-04-24T03:55:09;3.23;;;2.17;;
65172;SDS011;69059;52.218;5.172;2023-04-24T03:57:39;3.23;;;2.00;;
65172;SDS011;69059;52.218;5.172;2023-04-24T04:00:09;4.63;;;2.65;;
65172;SDS011;69059;52.218;5.172;2023-04-24T04:02:38;2.90;;;2.30;;
65172;SDS011;69059;52.218;5.172;2023-04-24T04:05:05;2.05;;;1.95;;
65172;SDS011;69059;52.218;5.172;2023-04-24T04:07:34;5.18;;;2.20;;
65172;SDS011;69059;52.218;5.172;2023-04-24T04:10:02;4.60;;;2.50;;
65172;SDS011;69059;52.218;5.172;2023-04-24T04:12:30;2.72;;;2.00;;
65172;SDS011;69059;52.218;5.172;2023-04-24T04:14:57;3.30;;;1.97;;
65172;SDS011;69059;52.218;5.172;2023-04-24T04:17:27;3.47;;;2.40;;
65172;SDS011;69059;52.218;5.172;2023-04-24T04:19:54;3.90;;;2.50;;
65172;SDS011;69059;52.218;5.172;2023-04-24T04:22:22;4.00;;;2.40;;
65172;SDS011;69059;52.218;5.172;2023-04-24T04:24:50;4.63;;;2.53;;
65172;SDS011;69059;52.218;5.172;2023-04-24T04:27:17;3.77;;;2.60;;
65172;SDS011;69059;52.218;5.172;2023-04-24T04:29:47;4.70;;;2.50;;
65172;SDS011;69059;52.218;5.172;2023-04-24T04:32:15;9.20;;;3.00;;
65172;SDS011;69059;52.218;5.172;2023-04-24T04:34:44;5.82;;;2.80;;
65172;SDS011;69059;52.218;5.172;2023-04-24T04:37:12;5.00;;;3.17;;
65172;SDS011;69059;52.218;5.172;2023-04-24T04:39:40;3.97;;;2.65;;
65172;SDS011;69059;52.218;5.172;2023-04-24T04:42:08;5.82;;;2.58;;
65172;SDS011;69059;52.218;5.172;2023-04-24T04:44:36;3.20;;;2.42;;
65172;SDS011;69059;52.218;5.172;2023-04-24T04:47:04;3.83;;;2.33;;
65172;SDS011;69059;52.218;5.172;2023-04-24T04:49:32;3.78;;;2.30;;
65172;SDS011;69059;52.218;5.172;2023-04-24T04:52:02;4.43;;;2.35;;
65172;SDS011;69059;52.218;5.172;2023-04-24T04:54:29;6.60;;;2.53;;
65172;SDS011;69059;52.218;5.172;2023-04-24T04:56:57;3.80;;;2.30;;
65172;SDS011;69059;52.218;5.172;2023-04-24T04:59:29;2.80;;;2.07;;
65172;SDS011;69059;52.218;5.172;2023-04-24T05:01:57;4.73;;;2.23;;
65172;SDS011;69059;52.218;5.172;2023-04-24T05:04:24;14.20;;;2.77;;
65172;SDS011;69059;52.218;5.172;2023-04-24T05:06:53;2.95;;;1.80;;
65172;SDS011;69059;52.218;5.172;2023-04-24T05:09:22;5.55;;;2.47;;
65172;SDS011;69059;52.218;5.172;2023-04-24T05:11:53;2.50;;;2.00;;
65172;SDS011;69059;52.218;5.172;2023-04-24T05:14:21;5.72;;;2.67;;
65172;SDS011;69059;52.218;5.172;2023-04-24T05:16:49;3.53;;;1.83;;
65172;SDS011;69059;52.218;5.172;2023-04-24T05:19:17;2.30;;;1.50;;
65172;SDS011;69059;52.218;5.172;2023-04-24T05:21:45;2.97;;;1.20;;
65172;SDS011;69059;52.218;5.172;2023-04-24T05:24:12;1.30;;;1.20;;
65172;SDS011;69059;52.218;5.172;2023-04-24T05:26:41;1.90;;;0.90;;
65172;SDS011;69059;52.218;5.172;2023-04-24T05:29:09;0.73;;;0.73;;
65172;SDS011;69059;52.218;5.172;2023-04-24T05:31:37;2.28;;;0.93;;
65172;SDS011;69059;52.218;5.172;2023-04-24T05:34:05;1.47;;;1.00;;
65172;SDS011;69059;52.218;5.172;2023-04-24T05:36:33;2.20;;;0.80;;
65172;SDS011;69059;52.218;5.172;2023-04-24T05:39:01;1.40;;;0.90;;
65172;SDS011;69059;52.218;5.172;2023-04-24T05:41:33;2.77;;;1.03;;
65172;SDS011;69059;52.218;5.172;2023-04-24T05:44:02;1.70;;;0.60;;
65172;SDS011;69059;52.218;5.172;2023-04-24T05:46:30;1.80;;;1.00;;
65172;SDS011;69059;52.218;5.172;2023-04-24T05:48:58;0.68;;;0.60;;
65172;SDS011;69059;52.218;5.172;2023-04-24T05:51:25;2.83;;;1.00;;
65172;SDS011;69059;52.218;5.172;2023-04-24T05:53:53;2.93;;;0.87;;
65172;SDS011;69059;52.218;5.172;2023-04-24T05:56:21;0.88;;;0.65;;
65172;SDS011;69059;52.218;5.172;2023-04-24T05:58:50;0.93;;;0.70;;
65172;SDS011;69059;52.218;5.172;2023-04-24T06:01:19;1.57;;;0.87;;
65172;SDS011;69059;52.218;5.172;2023-04-24T06:03:47;1.93;;;1.00;;
65172;SDS011;69059;52.218;5.172;2023-04-24T06:06:15;0.90;;;0.85;;
65172;SDS011;69059;52.218;5.172;2023-04-24T06:08:42;10.80;;;1.80;;
65172;SDS011;69059;52.218;5.172;2023-04-24T06:13:39;9.90;;;6.27;;
65172;SDS011;69059;52.218;5.172;2023-04-24T06:16:07;15.17;;;8.13;;
65172;SDS011;69059;52.218;5.172;2023-04-24T06:18:36;16.83;;;10.25;;
65172;SDS011;69059;52.218;5.172;2023-04-24T06:21:04;20.03;;;11.23;;
65172;SDS011;69059;52.218;5.172;2023-04-24T06:23:32;17.58;;;11.05;;
65172;SDS011;69059;52.218;5.172;2023-04-24T06:26:00;19.10;;;11.40;;
65172;SDS011;69059;52.218;5.172;2023-04-24T06:28:28;22.45;;;12.25;;
65172;SDS011;69059;52.218;5.172;2023-04-24T06:30:55;20.37;;;11.57;;
65172;SDS011;69059;52.218;5.172;2023-04-24T06:33:23;25.87;;;11.63;;
65172;SDS011;69059;52.218;5.172;2023-04-24T06:35:52;19.93;;;11.07;;
65172;SDS011;69059;52.218;5.172;2023-04-24T06:38:20;30.30;;;11.63;;
65172;SDS011;69059;52.218;5.172;2023-04-24T06:40:48;30.83;;;10.87;;
65172;SDS011;69059;52.218;5.172;2023-04-24T06:43:16;23.02;;;11.45;;
65172;SDS011;69059;52.218;5.172;2023-04-24T06:45:43;20.73;;;10.95;;
65172;SDS011;69059;52.218;5.172;2023-04-24T06:48:13;21.53;;;13.00;;
65172;SDS011;69059;52.218;5.172;2023-04-24T06:50:41;18.83;;;11.18;;
65172;SDS011;69059;52.218;5.172;2023-04-24T06:53:10;20.70;;;10.80;;
65172;SDS011;69059;52.218;5.172;2023-04-24T06:55:40;16.37;;;10.70;;
65172;SDS011;69059;52.218;5.172;2023-04-24T06:58:09;16.13;;;10.10;;
65172;SDS011;69059;52.218;5.172;2023-04-24T07:00:37;16.33;;;9.48;;
65172;SDS011;69059;52.218;5.172;2023-04-24T07:03:05;18.35;;;9.93;;
65172;SDS011;69059;52.218;5.172;2023-04-24T07:05:33;15.82;;;8.88;;
65172;SDS011;69059;52.218;5.172;2023-04-24T07:08:01;15.52;;;8.95;;
65172;SDS011;69059;52.218;5.172;2023-04-24T07:10:31;20.55;;;10.10;;
65172;SDS011;69059;52.218;5.172;2023-04-24T07:13:00;15.37;;;9.33;;
65172;SDS011;69059;52.218;5.172;2023-04-24T07:15:28;18.35;;;9.68;;
65172;SDS011;69059;52.218;5.172;2023-04-24T07:17:58;14.40;;;9.07;;
65172;SDS011;69059;52.218;5.172;2023-04-24T07:20:28;20.33;;;8.90;;
65172;SDS011;69059;52.218;5.172;2023-04-24T07:22:56;18.70;;;8.90;;
65172;SDS011;69059;52.218;5.172;2023-04-24T07:25:24;18.03;;;9.50;;
65172;SDS011;69059;52.218;5.172;2023-04-24T07:27:53;18.90;;;9.47;;
65172;SDS011;69059;52.218;5.172;2023-04-24T07:30:21;16.50;;;8.50;;
65172;SDS011;69059;52.218;5.172;2023-04-24T07:32:49;15.48;;;8.35;;
65172;SDS011;69059;52.218;5.172;2023-04-24T07:35:16;20.13;;;9.00;;
65172;SDS011;69059;52.218;5.172;2023-04-24T07:37:46;17.10;;;7.67;;
65172;SDS011;69059;52.218;5.172;2023-04-24T07:40:14;17.93;;;8.00;;
65172;SDS011;69059;52.218;5.172;2023-04-24T07:42:42;18.55;;;8.30;;
65172;SDS011;69059;52.218;5.172;2023-04-24T07:45:12;19.90;;;7.75;;
65172;SDS011;69059;52.218;5.172;2023-04-24T07:47:41;14.50;;;7.53;;
65172;SDS011;69059;52.218;5.172;2023-04-24T07:50:10;20.43;;;8.00;;
65172;SDS011;69059;52.218;5.172;2023-04-24T07:52:38;19.10;;;8.48;;
65172;SDS011;69059;52.218;5.172;2023-04-24T07:55:06;14.77;;;6.38;;
65172;SDS011;69059;52.218;5.172;2023-04-24T07:57:34;20.52;;;7.22;;
65172;SDS011;69059;52.218;5.172;2023-04-24T08:00:03;17.43;;;6.60;;
65172;SDS011;69059;52.218;5.172;2023-04-24T08:02:33;22.97;;;5.93;;
65172;SDS011;69059;52.218;5.172;2023-04-24T08:05:01;19.90;;;5.50;;
65172;SDS011;69059;52.218;5.172;2023-04-24T08:09:57;17.07;;;4.60;;
65172;SDS011;69059;52.218;5.172;2023-04-24T08:12:25;16.40;;;4.50;;
65172;SDS011;69059;52.218;5.172;2023-04-24T08:14:53;14.93;;;4.10;;
65172;SDS011;69059;52.218;5.172;2023-04-24T08:17:21;17.30;;;4.20;;
65172;SDS011;69059;52.218;5.172;2023-04-24T08:19:50;27.45;;;5.05;;
65172;SDS011;69059;52.218;5.172;2023-04-24T08:22:19;20.20;;;4.90;;
65172;SDS011;69059;52.218;5.172;2023-04-24T08:24:47;19.30;;;4.43;;
65172;SDS011;69059;52.218;5.172;2023-04-24T08:27:14;18.13;;;4.63;;
65172;SDS011;69059;52.218;5.172;2023-04-24T08:29:42;16.83;;;3.93;;
65172;SDS011;69059;52.218;5.172;2023-04-24T08:32:10;17.70;;;3.85;;
65172;SDS011;69059;52.218;5.172;2023-04-24T08:34:38;22.97;;;3.70;;
65172;SDS011;69059;52.218;5.172;2023-04-24T08:37:07;17.40;;;3.20;;
65172;SDS011;69059;52.218;5.172;2023-04-24T08:39:35;16.67;;;3.17;;
65172;SDS011;69059;52.218;5.172;2023-04-24T08:42:03;12.53;;;2.87;;
65172;SDS011;69059;52.218;5.172;2023-04-24T08:44:34;11.17;;;2.93;;
65172;SDS011;69059;52.218;5.172;2023-04-24T08:47:03;12.97;;;2.47;;
65172;SDS011;69059;52.218;5.172;2023-04-24T08:49:31;12.15;;;3.20;;
65172;SDS011;69059;52.218;5.172;2023-04-24T08:54:30;10.30;;;2.60;;
65172;SDS011;69059;52.218;5.172;2023-04-24T08:56:59;12.97;;;3.17;;
65172;SDS011;69059;52.218;5.172;2023-04-24T08:59:30;11.77;;;3.03;;
65172;SDS011;69059;52.218;5.172;2023-04-24T09:01:58;11.77;;;2.53;;
65172;SDS011;69059;52.218;5.172;2023-04-24T09:04:27;18.57;;;3.40;;
65172;SDS011;69059;52.218;5.172;2023-04-24T09:06:57;17.33;;;2.80;;
65172;SDS011;69059;52.218;5.172;2023-04-24T09:11:54;13.67;;;3.20;;
65172;SDS011;69059;52.218;5.172;2023-04-24T09:14:22;12.13;;;2.80;;
65172;SDS011;69059;52.218;5.172;2023-04-24T09:19:18;10.03;;;2.97;;
65172;SDS011;69059;52.218;5.172;2023-04-24T09:21:48;11.37;;;2.40;;
65172;SDS011;69059;52.218;5.172;2023-04-24T09:24:16;7.80;;;2.60;;
65172;SDS011;69059;52.218;5.172;2023-04-24T09:26:46;12.77;;;3.10;;
65172;SDS011;69059;52.218;5.172;2023-04-24T09:29:15;15.70;;;3.03;;
65172;SDS011;69059;52.218;5.172;2023-04-24T09:31:44;7.97;;;2.47;;
65172;SDS011;69059;52.218;5.172;2023-04-24T09:34:12;12.27;;;2.90;;
65172;SDS011;69059;52.218;5.172;2023-04-24T09:36:41;10.40;;;2.50;;
65172;SDS011;69059;52.218;5.172;2023-04-24T09:39:11;14.27;;;2.63;;
65172;SDS011;69059;52.218;5.172;2023-04-24T09:41:45;8.60;;;2.40;;
65172;SDS011;69059;52.218;5.172;2023-04-24T09:44:13;10.60;;;2.60;;
65172;SDS011;69059;52.218;5.172;2023-04-24T09:46:45;7.60;;;2.50;;
65172;SDS011;69059;52.218;5.172;2023-04-24T09:49:21;7.97;;;2.13;;
65172;SDS011;69059;52.218;5.172;2023-04-24T09:51:50;12.53;;;2.70;;
65172;SDS011;69059;52.218;5.172;2023-04-24T09:54:19;9.23;;;2.45;;
65172;SDS011;69059;52.218;5.172;2023-04-24T09:56:49;7.97;;;2.30;;
65172;SDS011;69059;52.218;5.172;2023-04-24T09:59:19;8.27;;;2.17;;
65172;SDS011;69059;52.218;5.172;2023-04-24T10:01:47;7.00;;;1.70;;
65172;SDS011;69059;52.218;5.172;2023-04-24T10:04:17;9.87;;;1.77;;
65172;SDS011;69059;52.218;5.172;2023-04-24T10:06:46;4.93;;;1.50;;
65172;SDS011;69059;52.218;5.172;2023-04-24T10:09:15;7.63;;;1.50;;
65172;SDS011;69059;52.218;5.172;2023-04-24T10:11:44;6.45;;;1.58;;
65172;SDS011;69059;52.218;5.172;2023-04-24T10:14:13;4.87;;;1.53;;
65172;SDS011;69059;52.218;5.172;2023-04-24T10:16:44;4.13;;;1.37;;
65172;SDS011;69059;52.218;5.172;2023-04-24T10:19:13;5.53;;;1.60;;
65172;SDS011;69059;52.218;5.172;2023-04-24T10:21:42;5.18;;;2.00;;
65172;SDS011;69059;52.218;5.172;2023-04-24T10:24:13;5.00;;;1.60;;
65172;SDS011;69059;52.218;5.172;2023-04-24T10:26:42;4.63;;;1.30;;
65172;SDS011;69059;52.218;5.172;2023-04-24T10:31:39;10.75;;;1.67;;
65172;SDS011;69059;52.218;5.172;2023-04-24T10:34:09;2.50;;;1.20;;
65172;SDS011;69059;52.218;5.172;2023-04-24T10:36:38;5.00;;;1.30;;
65172;SDS011;69059;52.218;5.172;2023-04-24T10:39:10;6.60;;;1.40;;
65172;SDS011;69059;52.218;5.172;2023-04-24T10:41:41;7.70;;;1.50;;
65172;SDS011;69059;52.218;5.172;2023-04-24T10:44:09;4.35;;;1.33;;
65172;SDS011;69059;52.218;5.172;2023-04-24T10:46:38;9.30;;;1.50;;
65172;SDS011;69059;52.218;5.172;2023-04-24T10:49:11;6.60;;;1.40;;
65172;SDS011;69059;52.218;5.172;2023-04-24T10:51:45;6.10;;;1.40;;
65172;SDS011;69059;52.218;5.172;2023-04-24T10:54:24;9.53;;;1.40;;
65172;SDS011;69059;52.218;5.172;2023-04-24T10:57:25;8.00;;;1.63;;
65172;SDS011;69059;52.218;5.172;2023-04-24T11:00:10;8.73;;;1.53;;
65172;SDS011;69059;52.218;5.172;2023-04-24T11:02:42;6.73;;;1.43;;
65172;SDS011;69059;52.218;5.172;2023-04-24T11:05:17;7.53;;;2.00;;
65172;SDS011;69059;52.218;5.172;2023-04-24T11:08:09;6.03;;;1.20;;
65172;SDS011;69059;52.218;5.172;2023-04-24T11:10:38;5.87;;;1.30;;
65172;SDS011;69059;52.218;5.172;2023-04-24T11:13:07;5.20;;;1.20;;
65172;SDS011;69059;52.218;5.172;2023-04-24T11:15:37;3.50;;;0.90;;
65172;SDS011;69059;52.218;5.172;2023-04-24T11:18:12;2.13;;;0.80;;
65172;SDS011;69059;52.218;5.172;2023-04-24T11:20:43;1.53;;;0.70;;
65172;SDS011;69059;52.218;5.172;2023-04-24T11:23:12;3.03;;;0.67;;
65172;SDS011;69059;52.218;5.172;2023-04-24T11:25:41;2.30;;;0.50;;
65172;SDS011;69059;52.218;5.172;2023-04-24T11:28:09;1.48;;;0.40;;
65172;SDS011;69059;52.218;5.172;2023-04-24T11:30:42;2.80;;;0.77;;
65172;SDS011;69059;52.218;5.172;2023-04-24T11:33:10;0.97;;;0.50;;
65172;SDS011;69059;52.218;5.172;2023-04-24T11:35:39;3.53;;;0.95;;
65172;SDS011;69059;52.218;5.172;2023-04-24T11:38:09;3.83;;;0.70;;
65172;SDS011;69059;52.218;5.172;2023-04-24T11:40:50;2.40;;;0.60;;
65172;SDS011;69059;52.218;5.172;2023-04-24T11:43:19;4.07;;;1.03;;
65172;SDS011;69059;52.218;5.172;2023-04-24T11:48:18;4.55;;;0.98;;
65172;SDS011;69059;52.218;5.172;2023-04-24T11:50:48;5.23;;;0.97;;
65172;SDS011;69059;52.218;5.172;2023-04-24T11:53:19;5.18;;;1.13;;
65172;SDS011;69059;52.218;5.172;2023-04-24T11:55:47;3.93;;;1.17;;
65172;SDS011;69059;52.218;5.172;2023-04-24T11:58:15;6.88;;;1.13;;
65172;SDS011;69059;52.218;5.172;2023-04-24T12:00:54;4.07;;;1.40;;
65172;SDS011;69059;52.218;5.172;2023-04-24T12:03:23;6.07;;;1.33;;
65172;SDS011;69059;52.218;5.172;2023-04-24T12:05:51;2.45;;;0.80;;
65172;SDS011;69059;52.218;5.172;2023-04-24T12:08:28;5.38;;;1.15;;
65172;SDS011;69059;52.218;5.172;2023-04-24T12:10:56;5.03;;;1.20;;
65172;SDS011;69059;52.218;5.172;2023-04-24T12:13:25;4.97;;;1.07;;
65172;SDS011;69059;52.218;5.172;2023-04-24T12:15:53;7.20;;;1.30;;
65172;SDS011;69059;52.218;5.172;2023-04-24T12:20:49;3.20;;;1.00;;
65172;SDS011;69059;52.218;5.172;2023-04-24T12:26:04;9.80;;;1.67;;
65172;SDS011;69059;52.218;5.172;2023-04-24T12:28:35;7.40;;;1.85;;
65172;SDS011;69059;52.218;5.172;2023-04-24T12:31:04;6.47;;;1.40;;
65172;SDS011;69059;52.218;5.172;2023-04-24T12:33:33;5.57;;;1.10;;
65172;SDS011;69059;52.218;5.172;2023-04-24T12:36:02;10.10;;;1.60;;
65172;SDS011;69059;52.218;5.172;2023-04-24T12:38:31;8.63;;;2.03;;
65172;SDS011;69059;52.218;5.172;2023-04-24T12:41:08;7.33;;;1.83;;
65172;SDS011;69059;52.218;5.172;2023-04-24T12:43:37;10.23;;;1.90;;
65172;SDS011;69059;52.218;5.172;2023-04-24T12:46:05;11.95;;;2.63;;
65172;SDS011;69059;52.218;5.172;2023-04-24T12:48:33;9.83;;;2.50;;
65172;SDS011;69059;52.218;5.172;2023-04-24T12:51:01;16.70;;;3.20;;
65172;SDS011;69059;52.218;5.172;2023-04-24T12:53:28;14.13;;;2.80;;
65172;SDS011;69059;52.218;5.172;2023-04-24T12:55:57;12.20;;;2.43;;
65172;SDS011;69059;52.218;5.172;2023-04-24T12:58:26;13.67;;;2.80;;
65172;SDS011;69059;52.218;5.172;2023-04-24T13:00:54;11.23;;;2.60;;
65172;SDS011;69059;52.218;5.172;2023-04-24T13:03:22;11.63;;;2.70;;
65172;SDS011;69059;52.218;5.172;2023-04-24T13:05:50;11.68;;;2.60;;
65172;SDS011;69059;52.218;5.172;2023-04-24T13:08:18;12.90;;;2.40;;
65172;SDS011;69059;52.218;5.172;2023-04-24T13:10:46;9.55;;;2.42;;
65172;SDS011;69059;52.218;5.172;2023-04-24T13:13:13;8.67;;;2.80;;
65172;SDS011;69059;52.218;5.172;2023-04-24T13:15:43;13.05;;;2.58;;
65172;SDS011;69059;52.218;5.172;2023-04-24T13:18:11;10.60;;;2.47;;
65172;SDS011;69059;52.218;5.172;2023-04-24T13:20:39;11.40;;;3.00;;
65172;SDS011;69059;52.218;5.172;2023-04-24T13:23:07;10.88;;;2.50;;
65172;SDS011;69059;52.218;5.172;2023-04-24T13:25:35;9.27;;;2.57;;
65172;SDS011;69059;52.218;5.172;2023-04-24T13:28:05;11.60;;;3.03;;
65172;SDS011;69059;52.218;5.172;2023-04-24T13:30:33;12.97;;;2.73;;
65172;SDS011;69059;52.218;5.172;2023-04-24T13:33:02;10.50;;;2.70;;
65172;SDS011;69059;52.218;5.172;2023-04-24T13:35:30;10.17;;;2.53;;
65172;SDS011;69059;52.218;5.172;2023-04-24T13:37:58;13.23;;;3.20;;
65172;SDS011;69059;52.218;5.172;2023-04-24T13:40:27;9.93;;;3.20;;
65172;SDS011;69059;52.218;5.172;2023-04-24T13:42:55;11.77;;;3.03;;
65172;SDS011;69059;52.218;5.172;2023-04-24T13:45:23;8.38;;;2.22;;
65172;SDS011;69059;52.218;5.172;2023-04-24T13:47:51;10.90;;;2.25;;
65172;SDS011;69059;52.218;5.172;2023-04-24T13:50:21;8.47;;;2.23;;
65172;SDS011;69059;52.218;5.172;2023-04-24T13:52:49;12.57;;;2.77;;
65172;SDS011;69059;52.218;5.172;2023-04-24T13:55:17;12.23;;;2.75;;
65172;SDS011;69059;52.218;5.172;2023-04-24T13:57:45;9.50;;;2.90;;
65172;SDS011;69059;52.218;5.172;2023-04-24T14:00:13;11.63;;;3.30;;
65172;SDS011;69059;52.218;5.172;2023-04-24T14:02:41;12.63;;;3.00;;
65172;SDS011;69059;52.218;5.172;2023-04-24T14:05:09;12.82;;;3.30;;
65172;SDS011;69059;52.218;5.172;2023-04-24T14:10:07;9.27;;;2.70;;
65172;SDS011;69059;52.218;5.172;2023-04-24T14:12:36;16.27;;;3.47;;
65172;SDS011;69059;52.218;5.172;2023-04-24T14:15:04;10.83;;;2.83;;
65172;SDS011;69059;52.218;5.172;2023-04-24T14:20:00;11.07;;;2.87;;
65172;SDS011;69059;52.218;5.172;2023-04-24T14:22:29;10.40;;;2.90;;
65172;SDS011;69059;52.218;5.172;2023-04-24T14:24:58;14.10;;;3.10;;
65172;SDS011;69059;52.218;5.172;2023-04-24T14:27:26;16.07;;;5.17;;
65172;SDS011;69059;52.218;5.172;2023-04-24T14:29:54;8.77;;;3.20;;
65172;SDS011;69059;52.218;5.172;2023-04-24T14:32:21;9.07;;;2.80;;
65172;SDS011;69059;52.218;5.172;2023-04-24T14:34:49;7.77;;;2.40;;
65172;SDS011;69059;52.218;5.172;2023-04-24T14:37:17;8.77;;;2.40;;
65172;SDS011;69059;52.218;5.172;2023-04-24T14:39:45;7.50;;;2.17;;
65172;SDS011;69059;52.218;5.172;2023-04-24T14:42:33;7.80;;;2.20;;
65172;SDS011;69059;52.218;5.172;2023-04-24T14:45:01;8.77;;;2.30;;
65172;SDS011;69059;52.218;5.172;2023-04-24T14:47:29;14.07;;;3.45;;
65172;SDS011;69059;52.218;5.172;2023-04-24T14:49:57;7.07;;;2.40;;
65172;SDS011;69059;52.218;5.172;2023-04-24T14:52:25;13.40;;;3.40;;
65172;SDS011;69059;52.218;5.172;2023-04-24T14:54:53;9.38;;;3.13;;
65172;SDS011;69059;52.218;5.172;2023-04-24T14:57:21;15.20;;;3.10;;
65172;SDS011;69059;52.218;5.172;2023-04-24T14:59:51;8.55;;;2.85;;
65172;SDS011;69059;52.218;5.172;2023-04-24T15:02:18;15.80;;;3.43;;
65172;SDS011;69059;52.218;5.172;2023-04-24T15:04:47;11.10;;;3.10;;
65172;SDS011;69059;52.218;5.172;2023-04-24T15:07:15;15.55;;;3.25;;
65172;SDS011;69059;52.218;5.172;2023-04-24T15:09:43;13.17;;;3.67;;
65172;SDS011;69059;52.218;5.172;2023-04-24T15:12:13;10.27;;;3.13;;
65172;SDS011;69059;52.218;5.172;2023-04-24T15:14:41;11.55;;;3.47;;
65172;SDS011;69059;52.218;5.172;2023-04-24T15:17:10;9.68;;;3.13;;
65172;SDS011;69059;52.218;5.172;2023-04-24T15:19:38;14.17;;;3.63;;
65172;SDS011;69059;52.218;5.172;2023-04-24T15:22:06;12.30;;;3.27;;